ADDS METAR Data INFO
IDs: Format: Raw Decoded Include TAF

Data at: 0252 UTC 17 Jan 2018

KCQM 170235Z AUTO 24006KT 10SM BKN110 M14/M18 A3034 RMK AO2
KCQM 170215Z AUTO 23007KT 10SM SCT002 SCT090 120 M15/M19 A3034 RMK AO2
KCQM 170155Z AUTO 23005KT 10SM SCT100 M15/M19 A3036 RMK AO2
KCQM 170135Z AUTO 24007KT 10SM SCT002 BKN100 120 M14/M19 A3037 RMK AO2
KCQM 170115Z AUTO 22007KT 10SM SCT002 BKN110 M14/M18 A3037 RMK AO2
KCQM 170055Z AUTO 22006KT 10SM SCT001 BKN110 M14/M18 A3039 RMK AO2
KCQM 170035Z AUTO 23007KT 10SM OVC120 M14/M18 A3040 RMK AO2
KCQM 170015Z AUTO 23006KT 10SM OVC120 M14/M17 A3040 RMK AO2
KCQM 162355Z AUTO 22005KT 10SM SCT002 SCT017 120 M14/M18 A3040 RMK AO2
KCQM 162335Z AUTO 23003KT 10SM BKN002 OVC015 M14/M17 A3042 RMK AO2
KCQM 162315Z AUTO 23004KT 10SM BKN002 M14/M17 A3042 RMK AO2
KCQM 162255Z AUTO 23003KT 10SM BKN002 BKN018 BKN080 M14/M17 A3044 RMK AO2
KCQM 162235Z AUTO 26005KT 10SM BKN002 BKN017 OVC080 M13/M18 A3046 RMK AO2
KCQM 162215Z AUTO 25006KT 10SM BKN002 BKN017 OVC090 M13/M18 A3046 RMK AO2
KCQM 162155Z AUTO 24005KT 10SM SCT002 BKN085 BKN090 M13/M17 A3047 RMK AO2
KCQM 162135Z AUTO 23004KT 10SM SCT002 BKN085 M13/M18 A3047 RMK AO2
KCQM 162115Z AUTO 24005KT 10SM SCT002 BKN075 BKN085 M13/M18 A3047 RMK AO2
KCQM 162055Z AUTO 26004KT 10SM BKN002 M13/M18 A3048 RMK AO2
KCQM 162035Z AUTO 25005KT 10SM BKN002 M13/M18 A3048 RMK AO2
KCQM 162015Z AUTO 26004KT 10SM BKN002 M14/M18 A3050 RMK AO2
KCQM 161955Z AUTO 27006KT 10SM BKN002 BKN017 BKN085 M14/M18 A3051 RMK AO2
KCQM 161935Z AUTO 27006KT 10SM SCT002 BKN017 M15/M19 A3052 RMK AO2
KCQM 161915Z AUTO 29004KT 10SM CLR M16/M18 A3052 RMK AO2
KCQM 161855Z AUTO 28004KT 10SM CLR M16/M18 A3053 RMK AO2
KCQM 161835Z AUTO 28005KT 4SM BR SCT002 M17/M19 A3054 RMK AO2
KCQM 161815Z AUTO 24003KT 10SM SCT100 M17/M19 A3055 RMK AO2
KCQM 161755Z AUTO 28004KT 10SM SCT002 SCT100 M18/M19 A3056 RMK AO2
KCQM 161735Z AUTO 28004KT 10SM SCT002 BKN010 BKN090 M18/M20 A3057 RMK AO2
KCQM 161715Z AUTO 28005KT 10SM SCT002 OVC008 M18/M20 A3058 RMK AO2
KCQM 161655Z AUTO 25004KT 10SM BKN008 OVC110 M19/M21 A3059 RMK AO2
KCQM 161635Z AUTO 27004KT 10SM OVC008 M19/M21 A3059 RMK AO2
KCQM 161615Z AUTO 26005KT 10SM BKN008 OVC012 M19/M21 A3060 RMK AO2
KCQM 161555Z AUTO 29003KT 10SM OVC008 M19/M21 A3060 RMK AO2
KCQM 161535Z AUTO 26004KT 10SM OVC008 M19/M21 A3060 RMK AO2
KCQM 161515Z AUTO 29003KT 10SM OVC008 M20/M22 A3060 RMK AO2
KCQM 161455Z AUTO 28006KT 10SM OVC008 M20/M22 A3061 RMK AO2
KCQM 161435Z AUTO 28004KT 10SM OVC006 M20/M22 A3061 RMK AO2
KCQM 161415Z AUTO 29005KT 10SM BKN006 OVC010 M20/M22 A3061 RMK AO2
KCQM 161355Z AUTO 29005KT 10SM OVC008 M20/M22 A3061 RMK AO2
KCQM 161335Z AUTO 29005KT 10SM OVC008 M20/M22 A3061 RMK AO2
KCQM 161315Z AUTO 00000KT 10SM OVC008 M19/M21 A3061 RMK AO2
KCQM 161255Z AUTO 29004KT 10SM OVC008 M19/M21 A3061 RMK AO2
KCQM 161235Z AUTO 32003KT 10SM OVC008 M19/M21 A3062 RMK AO2
KCQM 161215Z AUTO 30004KT 10SM OVC008 M19/M21 A3062 RMK AO2
KCQM 161155Z AUTO 28004KT 10SM OVC008 M19/M21 A3062 RMK AO2
KCQM 161135Z AUTO 32003KT 10SM OVC008 M19/M21 A3062 RMK AO2
KCQM 161115Z AUTO 33003KT 10SM OVC008 M19/M20 A3061 RMK AO2
KCQM 161055Z AUTO 29004KT 10SM OVC008 M18/M20 A3062 RMK AO2
KCQM 161035Z AUTO 31003KT 10SM OVC008 M18/M20 A3062 RMK AO2
KCQM 161015Z AUTO 32004KT 10SM OVC008 M18/M20 A3062 RMK AO2
KCQM 160955Z AUTO 00000KT 10SM OVC008 M18/M20 A3062 RMK AO2
KCQM 160935Z AUTO 34005KT 10SM BKN008 OVC012 M18/M20 A3062 RMK AO2
KCQM 160915Z AUTO 33004KT 10SM OVC008 M18/M20 A3063 RMK AO2
KCQM 160855Z AUTO 33003KT 10SM BKN008 OVC012 M18/M20 A3063 RMK AO2
KCQM 160835Z AUTO 34004KT 10SM BKN008 OVC012 M18/M20 A3062 RMK AO2
KCQM 160815Z AUTO 00000KT 3SM -SN OVC010 M18/M19 A3063 RMK AO2
KCQM 160755Z AUTO 33004KT 7SM OVC010 M18/M19 A3063 RMK AO2
KCQM 160735Z AUTO 34003KT 10SM OVC010 M18/M19 A3062 RMK AO2
KCQM 160715Z AUTO 33004KT 10SM OVC010 M18/M19 A3062 RMK AO2
KCQM 160655Z AUTO 36006KT 10SM BKN010 OVC014 M18/M19 A3062 RMK AO2
KCQM 160635Z AUTO 00000KT 10SM BKN010 OVC014 M18/M19 A3062 RMK AO2
KCQM 160615Z AUTO 01004KT 10SM OVC012 M18/M19 A3062 RMK AO2
KCQM 160555Z AUTO 34004KT 10SM OVC012 M18/M19 A3062 RMK AO2
KCQM 160535Z AUTO 00000KT 10SM OVC012 M18/M19 A3062 RMK AO2
KCQM 160515Z AUTO 33004KT 10SM OVC012 M17/M19 A3062 RMK AO2
KCQM 160455Z AUTO 34003KT 10SM OVC010 M17/M19 A3062 RMK AO2
KCQM 160435Z AUTO 34005KT 10SM OVC010 M17/M19 A3062 RMK AO2
KCQM 160415Z AUTO 32003KT 10SM OVC010 M17/M19 A3062 RMK AO2
KCQM 160355Z AUTO 34004KT 10SM OVC010 M17/M19 A3062 RMK AO2
KCQM 160335Z AUTO 35004KT 10SM OVC012 M17/M19 A3061 RMK AO2
KCQM 160315Z AUTO 35004KT 10SM OVC012 M17/M19 A3061 RMK AO2
KCQM 160255Z AUTO 34006KT 10SM OVC012 M17/M19 A3061 RMK AO2
KCQM 160235Z AUTO 35004KT 10SM OVC012 M17/M19 A3061 RMK AO2
KCQM 160215Z AUTO 36007KT 321V021 10SM OVC012 M17/M19 A3060 RMK AO2
KCQM 160155Z AUTO 35005KT 10SM OVC012 M17/M19 A3060 RMK AO2
KCQM 160135Z AUTO 35006KT 10SM OVC012 M17/M19 A3060 RMK AO2
KCQM 160115Z AUTO 36003KT 10SM OVC014 M17/M19 A3059 RMK AO2
KCQM 160055Z AUTO 34006KT 10SM OVC014 M17/M19 A3058 RMK AO2
KCQM 160035Z AUTO 33004KT 10SM OVC014 M17/M19 A3057 RMK AO2
KCQM 160015Z AUTO 34004KT 10SM OVC014 M17/M19 A3056 RMK AO2
KCQM 152355Z AUTO 35004KT 10SM OVC014 M16/M18 A3055 RMK AO2
KCQM 152335Z AUTO 34005KT 10SM OVC016 M16/M19 A3054 RMK AO2
KCQM 152315Z AUTO 33004KT 10SM OVC016 M16/M18 A3054 RMK AO2
KCQM 152255Z AUTO 34004KT 10SM OVC016 M16/M18 A3053 RMK AO2
KCQM 152235Z AUTO 34006KT 10SM OVC016 M16/M18 A3053 RMK AO2
KCQM 152215Z AUTO 35005KT 10SM OVC016 M16/M18 A3052 RMK AO2
KCQM 152155Z AUTO 34007KT 10SM OVC016 M16/M18 A3051 RMK AO2
KCQM 152135Z AUTO 35007KT 10SM BKN016 OVC021 M16/M18 A3050 RMK AO2
KCQM 152115Z AUTO 35008G14KT 10SM OVC018 M15/M18 A3048 RMK AO2
KCQM 152055Z AUTO 35005KT 10SM OVC016 M15/M18 A3047 RMK AO2
KCQM 152035Z AUTO 35004KT 10SM SCT002 OVC016 M15/M18 A3046 RMK AO2
KCQM 152015Z AUTO 35008KT 10SM SCT002 OVC016 M16/M18 A3045 RMK AO2
KCQM 151955Z AUTO 33006KT 10SM OVC016 M16/M19 A3044 RMK AO2
KCQM 151935Z AUTO 35008KT 10SM OVC016 M16/M19 A3044 RMK AO2
KCQM 151915Z AUTO 33007KT 291V351 10SM OVC016 M15/M18 A3043 RMK AO2
KCQM 151855Z AUTO 33003KT 10SM OVC016 M16/M19 A3043 RMK AO2
KCQM 151835Z AUTO 35006KT 10SM OVC016 M16/M19 A3043 RMK AO2
KCQM 151815Z AUTO 36005KT 10SM OVC016 M16/M19 A3042 RMK AO2
KCQM 151755Z AUTO 35006KT 10SM BKN018 M16/M19 A3042 RMK AO2
KCQM 151735Z AUTO 36005KT 10SM SCT002 OVC018 M16/M20 A3042 RMK AO2
KCQM 151715Z AUTO 33006KT 10SM SCT002 BKN016 BKN025 M17/M20 A3042 RMK AO2
KCQM 151655Z AUTO 35006KT 10SM SCT002 BKN022 BKN035 M17/M21 A3041 RMK AO2
KCQM 151635Z AUTO 35003KT 10SM SCT016 BKN022 OVC036 M18/M21 A3042 RMK AO2
KCQM 151615Z AUTO 35005KT 10SM SCT018 BKN025 OVC036 M18/M22 A3042 RMK AO2
KCQM 151555Z AUTO 34006KT 10SM BKN018 BKN027 OVC036 M19/M22 A3041 RMK AO2
KCQM 151535Z AUTO 34005KT 7SM BKN018 BKN026 OVC037 M20/M22 A3040 RMK AO2
KCQM 151515Z AUTO 33005KT 10SM BKN020 BKN026 OVC039 M20/M22 A3039 RMK AO2
KCQM 151455Z AUTO 32003KT 7SM SCT002 BKN026 OVC036 M20/M23 A3038 RMK AO2